Time;durP1;ratioP1;P1;durP2;ratioP2;P2;SDS_P1;SDS_P2;PMS_P1;PMS_P2;Temp;Humidity;BMP_temperature;BMP_pressure;BME280_temperature;BME280_humidity;BME280_pressure;Samples;Min_cycle;Max_cycle;Signal;HPM_P1;HPM_P2
2023/01/07 00:00:13;;;;;;;35.72;16.00;;;;;;;4.63;63.44;95875.81;4949642;28;20047;-76
2023/01/07 00:02:38;;;;;;;37.85;15.82;;;;;;;4.59;63.75;95893.03;4945055;28;20026;-76
2023/01/07 00:05:04;;;;;;;37.05;15.00;;;;;;;4.68;64.41;95919.81;4949177;28;20138;-76
2023/01/07 00:07:29;;;;;;;36.13;14.82;;;;;;;4.99;64.15;95961.72;4947325;28;20031;-76
2023/01/07 00:09:55;;;;;;;40.00;15.40;;;;;;;4.77;63.86;95921.94;4944009;28;20054;-76
2023/01/07 00:12:20;;;;;;;36.60;14.63;;;;;;;5.04;63.94;95973.19;4913588;29;20854;-76
2023/01/07 00:14:45;;;;;;;33.08;13.98;;;;;;;5.00;64.10;95969.41;4924485;29;20068;-75
2023/01/07 00:17:11;;;;;;;32.00;14.52;;;;;;;4.63;64.15;95925.75;4925933;29;20884;-76
2023/01/07 00:19:36;;;;;;;36.03;13.75;;;;;;;4.98;64.14;95973.25;4953115;28;20039;-76
2023/01/07 00:22:02;;;;;;;32.40;14.45;;;;;;;4.86;63.84;95960.06;4949978;28;20144;-76
2023/01/07 00:24:27;;;;;;;31.42;15.93;;;;;;;4.80;64.27;95947.81;4940031;29;20039;-76
2023/01/07 00:26:52;;;;;;;34.95;15.60;;;;;;;4.43;63.90;95883.88;4922196;29;20827;-76
2023/01/07 00:29:18;;;;;;;43.00;15.23;;;;;;;4.99;63.88;95974.88;4939759;28;20188;-76
2023/01/07 00:31:43;;;;;;;30.10;14.20;;;;;;;4.88;63.78;95971.13;4932635;29;20073;-76
2023/01/07 00:34:09;;;;;;;34.67;15.13;;;;;;;4.65;64.08;95936.84;4934408;29;20882;-76
2023/01/07 00:36:40;;;;;;;27.55;13.95;;;;;;;4.85;64.23;95970.78;4924201;29;20409;-76
2023/01/07 00:39:10;;;;;;;34.63;14.88;;;;;;;4.84;64.10;95972.59;4938025;28;20050;-76
2023/01/07 00:41:35;;;;;;;29.67;13.77;;;;;;;4.78;64.45;95973.47;4939540;28;20421;-76
2023/01/07 00:44:01;;;;;;;35.58;15.98;;;;;;;4.78;64.41;95972.69;4925472;29;20120;-76
2023/01/07 00:46:28;;;;;;;35.10;14.98;;;;;;;4.07;63.89;95873.34;4926087;29;20043;-76
2023/01/07 00:48:53;;;;;;;34.72;14.90;;;;;;;4.60;64.89;95976.88;4930923;28;20516;-76
2023/01/07 00:51:19;;;;;;;31.83;14.88;;;;;;;4.34;64.17;95947.44;4945229;28;20043;-76
2023/01/07 00:53:45;;;;;;;38.92;14.63;;;;;;;4.51;64.34;95962.41;4938934;28;20035;-76
2023/01/07 00:56:13;;;;;;;30.45;13.75;;;;;;;4.53;64.53;95962.19;4937641;28;20051;-76
2023/01/07 00:58:39;;;;;;;31.02;14.02;;;;;;;4.66;64.34;95981.25;4934519;29;20473;-76
2023/01/07 01:01:05;;;;;;;28.20;13.45;;;;;;;4.33;65.18;95983.41;4938690;28;20127;-76
2023/01/07 01:03:32;;;;;;;27.85;12.02;;;;;;;4.05;65.89;95975.09;4921450;29;20039;-76
2023/01/07 01:06:05;;;;;;;32.70;13.77;;;;;;;4.08;66.51;95983.38;4938954;29;20039;-76
2023/01/07 01:08:30;;;;;;;28.33;14.15;;;;;;;3.82;65.82;95937.13;4939288;29;20035;-76
2023/01/07 01:11:10;;;;;;;31.27;12.50;;;;;;;4.16;65.89;95992.81;4934201;29;20042;-76
2023/01/07 01:13:36;;;;;;;32.45;12.75;;;;;;;3.79;65.56;95928.88;4939280;29;20300;-76
2023/01/07 01:16:07;;;;;;;27.05;13.93;;;;;;;4.11;65.75;95982.16;4924533;29;20035;-76
2023/01/07 01:18:33;;;;;;;30.83;13.73;;;;;;;3.79;65.57;95940.19;4939908;29;20039;-76
2023/01/07 01:21:03;;;;;;;27.35;12.43;;;;;;;3.74;65.32;95933.94;4938540;28;20427;-77
2023/01/07 01:23:29;;;;;;;29.58;12.80;;;;;;;3.79;65.74;95944.63;4929030;29;20110;-77
2023/01/07 01:26:04;;;;;;;26.20;11.63;;;;;;;3.88;66.18;95967.78;4939139;29;20039;-75
2023/01/07 01:28:31;;;;;;;30.25;12.05;;;;;;;3.68;66.36;95940.03;4932447;29;20043;-75
2023/01/07 01:30:56;;;;;;;24.63;11.60;;;;;;;3.75;66.37;95957.34;4939474;28;20039;-75
2023/01/07 01:33:21;;;;;;;28.83;12.48;;;;;;;3.33;66.43;95892.47;4939007;29;20110;-76
2023/01/07 01:35:47;;;;;;;27.15;12.68;;;;;;;3.74;66.11;95949.69;4938454;29;20046;-76
2023/01/07 01:38:12;;;;;;;26.05;11.05;;;;;;;3.88;66.52;95970.41;4938780;29;20062;-76
2023/01/07 01:40:38;;;;;;;23.45;11.27;;;;;;;3.77;66.09;95947.44;4936732;29;20109;-76
2023/01/07 01:43:03;;;;;;;27.40;12.00;;;;;;;3.63;66.27;95937.25;4938926;29;20105;-75
2023/01/07 01:45:29;;;;;;;27.77;12.48;;;;;;;3.69;66.88;95976.56;4934248;29;20759;-76
2023/01/07 01:48:03;;;;;;;27.98;11.70;;;;;;;3.88;66.39;95995.84;4929463;28;20054;-76
2023/01/07 01:50:34;;;;;;;21.27;10.82;;;;;;;3.90;66.73;95985.91;4938620;29;20039;-76
2023/01/07 01:53:11;;;;;;;27.23;11.18;;;;;;;3.92;66.53;95991.75;4938782;28;20068;-76
2023/01/07 01:55:43;;;;;;;19.42;10.50;;;;;;;3.50;66.68;95919.78;4926779;29;20201;-76
2023/01/07 01:58:15;;;;;;;20.60;10.48;;;;;;;3.59;67.12;95963.09;4938979;29;20501;-76
2023/01/07 02:00:41;;;;;;;26.20;11.35;;;;;;;3.35;67.54;95927.13;4940862;28;20047;-76
2023/01/07 02:03:10;;;;;;;24.45;10.77;;;;;;;3.55;67.65;95955.88;4933860;29;20097;-75
2023/01/07 02:05:39;;;;;;;29.73;11.43;;;;;;;3.79;67.28;95983.97;4935700;29;20035;-76
2023/01/07 02:08:05;;;;;;;25.08;11.43;;;;;;;3.29;67.61;95925.34;4943199;28;20479;-76
2023/01/07 02:10:31;;;;;;;22.35;10.65;;;;;;;3.48;67.60;95955.91;4942672;28;20083;-75
2023/01/07 02:13:23;;;;;;;26.50;11.50;;;;;;;3.55;66.99;95954.06;4942284;29;20039;-75
2023/01/07 02:16:28;;;;;;;31.92;13.70;;;;;;;3.68;67.63;95977.56;4942187;28;20078;-75
2023/01/07 02:19:09;;;;;;;26.67;11.65;;;;;;;3.62;67.84;95977.63;4942139;28;20067;-75
2023/01/07 02:21:43;;;;;;;27.77;10.65;;;;;;;3.70;67.36;95980.00;4927733;28;20521;-76
2023/01/07 02:24:27;;;;;;;28.42;12.32;;;;;;;3.63;67.39;95977.41;4942612;28;20043;-76
2023/01/07 02:26:52;;;;;;;22.52;10.38;;;;;;;3.69;67.20;95967.88;4940233;28;20130;-76
2023/01/07 02:29:33;;;;;;;29.50;10.80;;;;;;;3.67;67.29;95970.72;4940218;29;20506;-76
2023/01/07 02:32:20;;;;;;;26.27;10.93;;;;;;;3.69;67.40;95973.94;4941945;28;20038;-76
2023/01/07 02:34:52;;;;;;;25.85;10.23;;;;;;;3.63;67.37;95971.34;4941493;28;20035;-76
2023/01/07 02:37:32;;;;;;;21.25;10.60;;;;;;;3.59;67.45;95978.81;4939362;29;20051;-76
2023/01/07 02:40:12;;;;;;;28.17;10.68;;;;;;;3.51;68.11;95970.44;4942204;28;20035;-76
2023/01/07 02:42:56;;;;;;;28.45;11.32;;;;;;;3.62;67.83;95975.78;4942067;28;20559;-76
2023/01/07 02:45:46;;;;;;;26.58;9.85;;;;;;;3.61;67.43;95979.44;4939944;29;20053;-76
2023/01/07 02:48:14;;;;;;;23.00;10.88;;;;;;;3.58;67.27;95974.63;4941694;28;20070;-76
2023/01/07 02:50:40;;;;;;;32.75;12.63;;;;;;;3.46;67.44;95953.50;4941647;28;20429;-76
2023/01/07 02:53:09;;;;;;;21.90;11.05;;;;;;;3.20;67.59;95930.03;4940953;28;20035;-76
2023/01/07 02:55:46;;;;;;;23.08;11.45;;;;;;;3.52;67.35;95972.81;4941756;28;20042;-76
2023/01/07 02:58:58;;;;;;;22.77;11.38;;;;;;;3.31;67.50;95954.78;4942341;28;20058;-76
2023/01/07 03:01:33;;;;;;;26.00;10.95;;;;;;;3.28;67.50;95949.97;4939438;28;20823;-75
2023/01/07 03:04:34;;;;;;;27.65;10.43;;;;;;;3.49;67.64;95975.88;4943858;28;20502;-76
2023/01/07 03:07:08;;;;;;;26.70;10.95;;;;;;;3.51;67.92;95973.06;4939738;29;20494;-75
2023/01/07 03:09:52;;;;;;;29.20;11.50;;;;;;;3.46;67.99;95982.34;4942476;28;20047;-75
2023/01/07 03:12:26;;;;;;;25.98;11.63;;;;;;;2.80;67.48;95874.38;4940628;28;20078;-75
2023/01/07 03:15:03;;;;;;;22.90;11.23;;;;;;;3.52;67.64;95988.56;4941514;28;20421;-76
2023/01/07 03:17:50;;;;;;;23.80;10.60;;;;;;;3.36;67.61;95974.09;4934676;28;20041;-75
2023/01/07 03:20:19;;;;;;;27.88;10.88;;;;;;;3.48;67.54;95979.50;4940767;28;20149;-75
2023/01/07 03:22:46;;;;;;;27.27;11.13;;;;;;;3.47;67.85;95981.31;4953388;28;20062;-75
2023/01/07 03:25:12;;;;;;;25.10;11.60;;;;;;;3.19;67.99;95941.53;4938848;29;20035;-75
2023/01/07 03:27:41;;;;;;;24.38;11.07;;;;;;;3.49;68.07;95978.50;4924446;28;20083;-75
2023/01/07 03:30:11;;;;;;;24.88;11.30;;;;;;;3.29;67.71;95935.81;4940635;29;20050;-75
2023/01/07 03:33:15;;;;;;;27.77;11.05;;;;;;;3.29;67.61;95956.78;4926724;29;20027;-75
2023/01/07 03:35:44;;;;;;;24.38;11.27;;;;;;;2.17;67.91;95790.41;4930278;28;20090;-75
2023/01/07 03:38:11;;;;;;;23.20;10.70;;;;;;;3.42;68.10;95986.41;4928894;29;20042;-75
2023/01/07 03:40:37;;;;;;;27.70;10.88;;;;;;;3.08;68.29;95931.69;4923505;29;20130;-75
2023/01/07 03:43:03;;;;;;;26.88;11.60;;;;;;;3.24;68.38;95967.91;4940140;29;20035;-75
2023/01/07 03:45:28;;;;;;;24.20;11.38;;;;;;;3.44;68.37;95980.94;4927167;28;20038;-75
2023/01/07 03:47:55;;;;;;;29.50;12.02;;;;;;;2.96;68.35;95907.16;4941246;28;20031;-75
2023/01/07 03:50:22;;;;;;;26.02;10.63;;;;;;;3.06;68.32;95920.59;4954058;28;20077;-75
2023/01/07 03:52:48;;;;;;;26.48;10.95;;;;;;;3.12;68.54;95927.66;4955357;28;20041;-75
2023/01/07 03:55:14;;;;;;;31.00;12.10;;;;;;;3.54;68.65;95986.53;4950783;28;20073;-75
2023/01/07 03:57:39;;;;;;;30.35;12.93;;;;;;;2.95;68.28;95888.00;4929277;28;20034;-75
2023/01/07 04:00:07;;;;;;;32.03;11.98;;;;;;;3.60;68.48;95988.31;4959811;28;20038;-76
2023/01/07 04:02:33;;;;;;;33.75;12.55;;;;;;;3.10;68.52;95912.13;4950767;28;20550;-76
2023/01/07 04:04:58;;;;;;;27.48;12.50;;;;;;;3.16;68.83;95922.78;4941086;28;20059;-76
2023/01/07 04:07:23;;;;;;;28.85;11.18;;;;;;;3.68;68.40;95990.69;4940387;28;20043;-76
2023/01/07 04:09:49;;;;;;;26.00;11.18;;;;;;;3.05;68.33;95896.22;4933365;28;20093;-76
2023/01/07 04:12:16;;;;;;;29.08;12.10;;;;;;;2.97;68.23;95890.44;4933971;28;20581;-76
2023/01/07 04:14:41;;;;;;;28.25;11.02;;;;;;;3.69;68.46;96005.41;4929544;29;20032;-76
2023/01/07 04:17:07;;;;;;;24.90;11.88;;;;;;;3.71;68.54;96007.84;4948717;28;20494;-76
2023/01/07 04:19:32;;;;;;;26.77;11.45;;;;;;;3.39;68.38;95944.84;4952921;28;20031;-75
2023/01/07 04:21:58;;;;;;;32.10;15.73;;;;;;;3.34;68.48;95949.13;4953535;28;20161;-75
2023/01/07 04:24:23;;;;;;;40.38;19.17;;;;;;;3.77;68.37;96018.28;4937254;28;20901;-76
2023/01/07 04:26:48;;;;;;;35.10;17.13;;;;;;;3.61;68.35;95981.25;4936442;28;20040;-76
2023/01/07 04:29:14;;;;;;;60.55;25.02;;;;;;;3.70;68.11;96000.97;4955398;28;20433;-76
2023/01/07 04:31:39;;;;;;;39.95;17.25;;;;;;;3.44;67.80;95949.47;4939732;28;20506;-76
2023/01/07 04:34:05;;;;;;;46.17;18.75;;;;;;;3.51;67.96;95965.97;4924137;28;20031;-76
2023/01/07 04:36:30;;;;;;;45.63;19.92;;;;;;;3.83;68.05;96019.25;4942691;28;20030;-75
2023/01/07 04:38:56;;;;;;;41.08;20.15;;;;;;;3.85;67.90;96015.41;4944056;28;20049;-75
2023/01/07 04:41:21;;;;;;;43.05;19.23;;;;;;;3.86;67.78;96022.28;4945688;28;20046;-75
2023/01/07 04:43:46;;;;;;;43.60;20.90;;;;;;;3.19;67.87;95925.00;4947292;28;20034;-75
2023/01/07 04:46:12;;;;;;;53.03;21.48;;;;;;;3.90;67.68;96020.03;4946978;28;20517;-75
2023/01/07 04:48:37;;;;;;;51.22;22.98;;;;;;;3.72;67.51;95991.09;4932253;28;20039;-76
2023/01/07 04:51:03;;;;;;;47.25;21.52;;;;;;;3.47;67.18;95959.53;4951347;28;20046;-75
2023/01/07 04:53:28;;;;;;;55.40;22.10;;;;;;;3.83;67.87;96025.31;4951503;28;20512;-75
2023/01/07 04:55:54;;;;;;;51.40;21.70;;;;;;;3.53;67.43;95952.63;4952754;28;20129;-75
2023/01/07 04:58:20;;;;;;;47.97;20.70;;;;;;;3.76;67.04;95997.50;4953291;28;20117;-75
2023/01/07 05:00:45;;;;;;;46.30;20.85;;;;;;;3.83;66.92;96000.91;4955137;28;20038;-75
2023/01/07 05:03:11;;;;;;;45.20;21.75;;;;;;;3.83;67.07;96001.69;4938847;28;20042;-75
2023/01/07 05:05:37;;;;;;;52.47;23.60;;;;;;;3.93;66.85;96013.56;4939381;28;20030;-75
2023/01/07 05:08:02;;;;;;;49.58;22.70;;;;;;;3.76;67.16;95997.50;4945250;28;20039;-75
2023/01/07 05:10:28;;;;;;;64.53;27.33;;;;;;;3.50;66.64;95959.13;4938641;28;20054;-75
2023/01/07 05:12:53;;;;;;;63.10;27.20;;;;;;;3.85;66.72;96028.53;4939247;29;20035;-75
2023/01/07 05:15:19;;;;;;;60.03;27.98;;;;;;;3.85;66.57;96036.41;4926306;28;20046;-75
2023/01/07 05:17:44;;;;;;;63.03;28.15;;;;;;;3.80;66.56;96023.13;4945304;28;20133;-75
2023/01/07 05:20:10;;;;;;;65.97;27.25;;;;;;;3.59;66.42;95986.69;4946605;28;20035;-75
2023/01/07 05:22:35;;;;;;;60.45;26.73;;;;;;;3.19;66.76;95936.28;4926291;28;20542;-75
2023/01/07 05:25:01;;;;;;;67.53;28.35;;;;;;;3.65;66.71;96016.56;4944597;28;20838;-76
2023/01/07 05:27:27;;;;;;;61.65;26.23;;;;;;;3.35;66.40;95969.91;4937665;29;20510;-76
2023/01/07 05:29:53;;;;;;;64.75;26.88;;;;;;;3.21;66.72;95962.28;4938713;28;20052;-75
2023/01/07 05:32:18;;;;;;;58.50;26.25;;;;;;;3.39;66.88;95993.88;4939023;28;20046;-76
2023/01/07 05:34:43;;;;;;;61.38;26.08;;;;;;;3.33;66.86;95985.03;4938699;28;20039;-76
2023/01/07 05:37:09;;;;;;;62.90;27.77;;;;;;;3.63;67.13;96045.59;4942886;28;20043;-76
2023/01/07 05:39:34;;;;;;;60.75;26.33;;;;;;;3.46;67.48;96016.41;4942967;28;20750;-76
2023/01/07 05:42:00;;;;;;;71.20;28.83;;;;;;;3.61;67.28;96044.19;4941148;29;20138;-76
2023/01/07 05:44:26;;;;;;;73.32;28.98;;;;;;;3.00;67.16;95953.69;4942815;28;20396;-76
2023/01/07 05:46:51;;;;;;;73.95;29.88;;;;;;;3.45;67.41;96027.91;4942122;28;20049;-76
2023/01/07 05:49:17;;;;;;;69.97;29.60;;;;;;;3.58;67.16;96034.94;4954010;28;20093;-77
2023/01/07 05:51:42;;;;;;;64.15;26.88;;;;;;;2.81;66.93;95922.34;4952353;28;20791;-76
2023/01/07 05:54:08;;;;;;;68.40;28.35;;;;;;;3.61;66.98;96036.31;4942166;28;20125;-76
2023/01/07 05:56:34;;;;;;;73.05;29.63;;;;;;;3.60;66.98;96037.34;4941885;28;20035;-76
2023/01/07 05:59:00;;;;;;;67.25;29.67;;;;;;;3.35;66.71;95993.50;4941991;28;20071;-76
2023/01/07 06:01:26;;;;;;;72.07;29.90;;;;;;;3.63;66.82;96043.00;4941975;28;20046;-76
2023/01/07 06:03:51;;;;;;;64.78;29.45;;;;;;;3.51;66.91;96041.22;4941101;29;20529;-76
2023/01/07 06:06:16;;;;;;;65.82;28.58;;;;;;;3.35;66.93;96016.28;4949351;28;20813;-76
2023/01/07 06:08:42;;;;;;;77.93;29.90;;;;;;;3.26;67.31;96028.81;4942632;28;20046;-76
2023/01/07 06:11:07;;;;;;;76.55;31.63;;;;;;;3.09;66.92;95980.47;4940712;28;20043;-76
2023/01/07 06:13:34;;;;;;;77.30;29.52;;;;;;;3.52;66.83;96042.81;4943633;28;20039;-76
2023/01/07 06:16:04;;;;;;;80.60;31.05;;;;;;;3.60;66.91;96050.44;4941933;28;20060;-75
2023/01/07 06:18:30;;;;;;;82.88;33.10;;;;;;;3.66;66.58;96060.13;4942040;28;20039;-76
2023/01/07 06:20:55;;;;;;;90.03;34.75;;;;;;;3.68;66.53;96055.47;4942283;28;20058;-76
2023/01/07 06:23:21;;;;;;;87.50;32.45;;;;;;;3.70;66.73;96056.88;4941937;29;20059;-76
2023/01/07 06:25:46;;;;;;;79.53;33.05;;;;;;;3.27;66.72;95991.09;4942029;28;20054;-76
2023/01/07 06:28:12;;;;;;;78.82;31.83;;;;;;;3.35;66.52;95992.69;4941965;29;20548;-76
2023/01/07 06:30:37;;;;;;;68.03;30.92;;;;;;;3.08;66.57;95944.78;4942308;28;20039;-75
2023/01/07 06:33:06;;;;;;;74.20;31.05;;;;;;;3.85;66.30;96061.84;4941872;29;20577;-76
2023/01/07 06:35:32;;;;;;;76.15;31.83;;;;;;;3.79;66.40;96041.69;4941902;28;20046;-76
2023/01/07 06:37:59;;;;;;;80.38;31.30;;;;;;;3.52;66.46;95995.63;4934907;29;20094;-76
2023/01/07 06:40:25;;;;;;;85.90;32.50;;;;;;;3.86;66.29;96045.09;4941622;28;20055;-76
2023/01/07 06:42:51;;;;;;;92.65;30.98;;;;;;;3.74;66.27;96023.94;4942005;28;20119;-76
2023/01/07 06:45:16;;;;;;;71.82;30.45;;;;;;;3.81;66.25;96035.22;4941704;29;20039;-76
2023/01/07 06:47:42;;;;;;;70.35;28.52;;;;;;;3.46;66.07;95986.78;4937200;29;20038;-76
2023/01/07 06:50:08;;;;;;;65.18;29.67;;;;;;;4.05;65.95;96056.47;4941554;28;20506;-76
2023/01/07 06:52:34;;;;;;;74.53;30.27;;;;;;;3.47;65.69;95980.50;4941471;28;20569;-76
2023/01/07 06:54:59;;;;;;;74.10;30.77;;;;;;;4.11;65.79;96060.91;4941440;28;20031;-76
2023/01/07 06:57:24;;;;;;;79.32;31.80;;;;;;;3.81;65.11;96002.94;4927243;29;20178;-76
2023/01/07 06:59:50;;;;;;;75.88;31.42;;;;;;;3.84;65.42;96005.94;4928480;29;20034;-75
2023/01/07 07:02:21;;;;;;;75.40;31.70;;;;;;;4.07;65.84;96060.50;4929571;29;20035;-76
2023/01/07 07:04:47;;;;;;;73.72;32.75;;;;;;;3.41;65.54;95944.66;4924031;29;20502;-76
2023/01/07 07:07:12;;;;;;;75.57;31.98;;;;;;;4.08;65.77;96075.25;4941278;28;20043;-76
2023/01/07 07:09:38;;;;;;;72.43;31.45;;;;;;;4.06;65.44;96069.41;4941385;29;20048;-76
2023/01/07 07:12:04;;;;;;;70.60;30.23;;;;;;;3.93;65.92;96069.47;4941587;29;20056;-76
2023/01/07 07:14:29;;;;;;;64.20;31.15;;;;;;;2.81;66.00;95881.22;4941683;28;20070;-76
2023/01/07 07:16:55;;;;;;;73.38;30.35;;;;;;;3.98;65.48;96053.91;4941779;28;20066;-76
2023/01/07 07:19:20;;;;;;;55.33;27.25;;;;;;;4.12;65.51;96070.41;4941337;28;20049;-76
2023/01/07 07:21:46;;;;;;;60.55;25.85;;;;;;;3.75;65.51;95998.53;4940856;29;20772;-76
2023/01/07 07:24:12;;;;;;;64.93;27.10;;;;;;;4.16;65.49;96074.19;4940883;28;20031;-75
2023/01/07 07:26:37;;;;;;;69.18;26.52;;;;;;;3.92;65.39;96019.81;4941291;28;20035;-75
2023/01/07 07:29:03;;;;;;;57.33;25.35;;;;;;;4.18;65.52;96072.16;4923142;29;20051;-75
2023/01/07 07:31:28;;;;;;;56.90;26.35;;;;;;;3.93;65.80;96048.47;4919962;29;20040;-75
2023/01/07 07:33:54;;;;;;;56.35;26.83;;;;;;;4.20;65.66;96078.81;4928481;29;20042;-75
2023/01/07 07:36:19;;;;;;;61.08;26.23;;;;;;;4.08;65.84;96077.88;4940626;28;20043;-76
2023/01/07 07:38:44;;;;;;;52.00;24.35;;;;;;;4.08;66.33;96069.19;4940723;29;21794;-76
2023/01/07 07:41:10;;;;;;;57.05;25.25;;;;;;;3.73;66.43;96014.50;4940276;29;20039;-76
2023/01/07 07:43:35;;;;;;;56.50;26.50;;;;;;;3.81;66.47;96022.09;4923345;29;20035;-76
2023/01/07 07:46:01;;;;;;;56.63;23.95;;;;;;;3.56;66.56;95984.50;4941064;29;20557;-76
2023/01/07 07:48:26;;;;;;;50.20;22.85;;;;;;;3.87;66.41;96020.47;4940581;28;20039;-76
2023/01/07 07:50:52;;;;;;;56.60;23.10;;;;;;;3.83;66.61;96016.63;4940688;28;20922;-76
2023/01/07 07:53:18;;;;;;;51.42;22.45;;;;;;;4.26;66.14;96071.91;4943105;28;20035;-76
2023/01/07 07:55:45;;;;;;;48.67;22.23;;;;;;;4.34;66.32;96068.22;4932308;28;20050;-76
2023/01/07 07:58:10;;;;;;;54.53;23.70;;;;;;;3.98;66.00;96008.47;4939782;28;20046;-76
2023/01/07 08:00:36;;;;;;;48.05;21.52;;;;;;;4.44;65.80;96065.91;4922493;29;20482;-76
2023/01/07 08:03:01;;;;;;;46.67;23.02;;;;;;;4.05;65.61;95999.53;4940619;28;20186;-76
2023/01/07 08:05:27;;;;;;;47.50;20.33;;;;;;;4.55;65.85;96066.06;4940072;29;20067;-76
2023/01/07 08:07:54;;;;;;;34.67;18.13;;;;;;;4.01;65.63;95971.31;4923140;29;20043;-76
2023/01/07 08:10:20;;;;;;;36.40;17.52;;;;;;;4.19;65.50;96001.06;4940399;28;20043;-76
2023/01/07 08:12:45;;;;;;;45.15;19.90;;;;;;;4.52;66.06;96060.41;4939991;28;20031;-76
2023/01/07 08:15:11;;;;;;;43.17;18.42;;;;;;;4.49;65.82;96051.16;4939486;28;20031;-76
2023/01/07 08:17:37;;;;;;;41.38;19.35;;;;;;;4.23;66.21;96025.06;4939846;28;20042;-77
2023/01/07 08:20:03;;;;;;;45.80;21.70;;;;;;;4.66;66.16;96075.03;4932668;29;20644;-77
2023/01/07 08:22:29;;;;;;;48.78;20.75;;;;;;;4.12;66.51;95996.91;4934573;29;20484;-76
2023/01/07 08:24:55;;;;;;;53.70;23.77;;;;;;;4.71;66.07;96071.78;4940111;28;20027;-76
2023/01/07 08:27:21;;;;;;;54.10;23.95;;;;;;;4.82;65.58;96069.25;4933086;29;20069;-77
2023/01/07 08:29:46;;;;;;;51.03;23.58;;;;;;;4.23;65.57;95972.56;4922829;29;20581;-76
2023/01/07 08:32:12;;;;;;;44.92;23.50;;;;;;;4.91;65.96;96069.78;4923315;29;20035;-76
2023/01/07 08:34:37;;;;;;;58.15;24.73;;;;;;;4.98;65.31;96065.28;4940012;28;20074;-75
2023/01/07 08:37:03;;;;;;;54.40;24.23;;;;;;;4.49;64.97;95984.69;4925267;29;20097;-76
2023/01/07 08:39:28;;;;;;;42.92;19.80;;;;;;;4.64;65.31;96006.16;4946679;28;20042;-76
2023/01/07 08:41:53;;;;;;;35.47;16.92;;;;;;;5.03;65.45;96070.72;4935103;29;20039;-75
2023/01/07 08:44:19;;;;;;;52.35;23.67;;;;;;;5.05;65.55;96061.56;4940125;29;20031;-76
2023/01/07 08:46:44;;;;;;;54.90;23.13;;;;;;;5.13;64.99;96059.66;4939858;28;20039;-76
2023/01/07 08:49:10;;;;;;;65.05;27.15;;;;;;;5.01;65.04;96062.22;4939643;29;20390;-76
2023/01/07 08:51:36;;;;;;;56.92;25.73;;;;;;;4.49;65.01;95974.16;4939164;29;20039;-76
2023/01/07 08:54:01;;;;;;;67.43;26.02;;;;;;;3.81;64.69;95856.00;4935259;29;20418;-76
2023/01/07 08:56:26;;;;;;;55.80;24.52;;;;;;;4.50;65.48;95967.91;4939308;28;20042;-76
2023/01/07 08:58:52;;;;;;;49.63;23.27;;;;;;;4.94;64.86;96038.63;4939175;28;20480;-76
2023/01/07 09:01:17;;;;;;;51.58;24.35;;;;;;;4.76;65.11;96006.25;4937112;29;20526;-76
2023/01/07 09:03:43;;;;;;;45.55;22.63;;;;;;;4.76;64.86;95975.53;4922960;29;20873;-76
2023/01/07 09:06:08;;;;;;;53.78;23.17;;;;;;;4.96;64.73;95996.34;4939576;29;20070;-76
2023/01/07 09:08:34;;;;;;;56.45;23.33;;;;;;;5.14;65.12;96034.97;4939723;28;20038;-76
2023/01/07 09:10:59;;;;;;;53.35;24.65;;;;;;;4.90;64.98;95994.56;4938247;28;20574;-76
2023/01/07 09:13:25;;;;;;;53.80;24.17;;;;;;;5.21;64.82;96028.63;4939121;29;20038;-76
2023/01/07 09:15:51;;;;;;;50.25;23.88;;;;;;;5.22;65.55;96035.50;4921492;29;20577;-76
2023/01/07 09:18:19;;;;;;;47.97;22.00;;;;;;;5.00;65.55;96011.47;4939076;28;20133;-76
2023/01/07 09:20:44;;;;;;;47.58;22.27;;;;;;;5.34;64.70;96027.69;4939049;29;20509;-76
2023/01/07 09:23:09;;;;;;;50.05;22.42;;;;;;;4.84;64.83;95932.38;4926010;29;20147;-76
2023/01/07 09:25:35;;;;;;;44.33;21.70;;;;;;;5.08;64.73;95947.28;4904699;29;20036;-76
2023/01/07 09:28:01;;;;;;;52.15;20.65;;;;;;;5.31;64.58;95976.34;4905429;29;20129;-76
2023/01/07 09:30:26;;;;;;;47.33;21.70;;;;;;;4.82;64.90;95927.34;4918983;29;20039;-76
2023/01/07 09:32:51;;;;;;;46.40;21.25;;;;;;;5.04;64.75;95931.13;4921375;29;20050;-76
2023/01/07 09:35:17;;;;;;;60.25;22.73;;;;;;;5.54;64.55;95996.69;4921901;29;20035;-76
2023/01/07 09:37:42;;;;;;;57.00;22.48;;;;;;;5.26;64.45;95936.75;4903251;29;20039;-76
2023/01/07 09:40:20;;;;;;;54.75;21.15;;;;;;;5.32;65.27;95949.00;4902516;29;20032;-76
2023/01/07 09:42:50;;;;;;;43.45;20.60;;;;;;;5.76;64.25;95987.28;4905844;29;20035;-76
2023/01/07 09:45:20;;;;;;;42.67;19.67;;;;;;;5.69;64.35;95983.94;4934653;29;20082;-76
2023/01/07 09:47:49;;;;;;;46.90;21.65;;;;;;;5.77;63.99;95975.75;4912812;29;20431;-76
2023/01/07 09:50:36;;;;;;;53.53;21.80;;;;;;;5.23;64.63;95910.09;4919670;29;20050;-76
2023/01/07 09:53:04;;;;;;;49.17;22.75;;;;;;;5.40;64.27;95913.72;4919913;29;20035;-76
2023/01/07 09:55:34;;;;;;;44.13;21.30;;;;;;;5.77;63.86;95959.94;4901938;29;20103;-76
2023/01/07 09:58:00;;;;;;;40.42;19.52;;;;;;;5.39;64.51;95886.59;4924432;29;20031;-77
2023/01/07 10:00:25;;;;;;;47.80;23.95;;;;;;;5.90;63.60;95956.34;4919125;29;20063;-75
2023/01/07 10:03:11;;;;;;;48.35;23.77;;;;;;;5.90;64.47;95952.91;4921987;29;20105;-75
2023/01/07 10:05:55;;;;;;;50.00;23.33;;;;;;;5.94;64.47;95944.34;4903853;29;20043;-75
2023/01/07 10:08:32;;;;;;;55.83;22.92;;;;;;;5.66;64.07;95880.94;4919936;29;20550;-75
2023/01/07 10:11:11;;;;;;;55.17;22.67;;;;;;;6.00;63.84;95911.84;4920194;29;20040;-75
2023/01/07 10:14:01;;;;;;;54.63;22.20;;;;;;;6.07;64.51;95935.44;4932778;28;20054;-75
2023/01/07 10:16:56;;;;;;;48.60;22.67;;;;;;;6.26;63.95;95933.50;4919524;29;20857;-75
2023/01/07 10:19:42;;;;;;;42.83;22.33;;;;;;;6.27;64.12;95930.66;4921078;29;20074;-75
2023/01/07 10:22:20;;;;;;;46.38;22.33;;;;;;;6.62;63.41;95924.59;4918584;28;20055;-75
2023/01/07 10:24:55;;;;;;;48.47;22.77;;;;;;;7.12;61.32;95864.19;4947264;28;20805;-75
2023/01/07 10:27:31;;;;;;;38.90;19.77;;;;;;;8.62;58.44;95905.81;4941657;28;20050;-76
2023/01/07 10:30:10;;;;;;;41.08;20.17;;;;;;;9.26;55.42;95870.66;4941499;28;20067;-76
2023/01/07 10:32:36;;;;;;;37.60;18.95;;;;;;;10.35;52.98;95906.66;4945658;28;20035;-75
2023/01/07 10:35:03;;;;;;;41.10;20.17;;;;;;;10.80;51.38;95899.00;4939845;29;20023;-75
2023/01/07 10:37:35;;;;;;;40.28;18.23;;;;;;;10.81;50.44;95844.91;4941092;28;20473;-76
2023/01/07 10:40:31;;;;;;;29.38;16.58;;;;;;;11.62;49.69;95889.50;4941824;28;20121;-76
2023/01/07 10:43:12;;;;;;;34.08;15.65;;;;;;;12.12;48.25;95882.72;4946815;28;20039;-76
2023/01/07 10:45:58;;;;;;;38.57;16.30;;;;;;;11.92;47.03;95827.66;4939666;28;20039;-76
2023/01/07 10:48:44;;;;;;;23.10;11.93;;;;;;;12.45;46.51;95868.84;4941859;29;20039;-76
2023/01/07 10:51:31;;;;;;;31.33;11.93;;;;;;;12.49;46.79;95864.59;4926068;28;20826;-76
2023/01/07 10:54:06;;;;;;;24.85;13.13;;;;;;;12.47;46.19;95856.09;4941710;28;20027;-76
2023/01/07 10:56:36;;;;;;;37.22;13.70;;;;;;;12.54;46.49;95853.16;4941734;28;20057;-76
2023/01/07 10:59:02;;;;;;;20.10;9.95;;;;;;;12.75;46.01;95863.47;4941638;28;20106;-76
2023/01/07 11:01:35;;;;;;;33.67;11.50;;;;;;;12.34;46.07;95795.47;4946133;28;20031;-76
2023/01/07 11:04:01;;;;;;;23.58;9.25;;;;;;;12.46;45.84;95821.75;4947982;28;20504;-76
2023/01/07 11:06:47;;;;;;;26.38;9.75;;;;;;;12.83;45.79;95842.69;4941577;28;20039;-76
2023/01/07 11:09:18;;;;;;;19.10;7.82;;;;;;;12.23;46.32;95785.91;4947522;28;20743;-76
2023/01/07 11:11:45;;;;;;;19.92;6.32;;;;;;;12.02;47.25;95806.41;4940273;28;20042;-76
2023/01/07 11:14:33;;;;;;;8.98;4.95;;;;;;;12.16;47.10;95790.69;4941116;28;20046;-76
2023/01/07 11:17:26;;;;;;;22.75;8.23;;;;;;;12.05;47.75;95831.66;4941042;28;20117;-76
2023/01/07 11:19:51;;;;;;;12.45;5.85;;;;;;;11.22;49.89;95831.75;4935143;28;20127;-76
2023/01/07 11:22:26;;;;;;;12.13;6.07;;;;;;;11.46;49.32;95826.78;4947579;28;20055;-76
2023/01/07 11:24:56;;;;;;;13.10;5.97;;;;;;;10.82;51.29;95819.16;4942164;28;20452;-76
2023/01/07 11:27:28;;;;;;;10.90;4.80;;;;;;;10.77;51.23;95805.84;4942470;28;20074;-76
2023/01/07 11:30:01;;;;;;;;;;;;;;;10.45;51.98;95817.38;4945097;28;20278;-76
2023/01/07 11:32:33;;;;;;;10.63;5.00;;;;;;;10.45;52.40;95814.72;4940464;28;19929;-76